createdAt,value
2018-01-23T00:00:22.999Z,6.77
2018-01-23T00:02:50.459Z,6.81
2018-01-23T00:05:17.935Z,6.86
2018-01-23T00:07:45.391Z,6.90
2018-01-23T00:10:12.864Z,6.92
2018-01-23T00:12:40.323Z,6.91
2018-01-23T00:15:07.810Z,6.94
2018-01-23T00:17:35.272Z,6.92
2018-01-23T00:20:02.734Z,6.96
2018-01-23T00:22:30.260Z,6.92
2018-01-23T00:24:57.728Z,6.92
2018-01-23T00:27:25.208Z,6.97
2018-01-23T00:29:52.672Z,6.93
2018-01-23T00:32:20.143Z,6.94
2018-01-23T00:34:47.601Z,6.92
2018-01-23T00:37:15.084Z,6.88
2018-01-23T00:39:42.542Z,6.84
2018-01-23T00:42:10.043Z,6.86
2018-01-23T00:44:37.514Z,6.83
2018-01-23T00:47:04.998Z,6.86
2018-01-23T00:49:32.468Z,6.87
2018-01-23T00:51:59.943Z,6.82
2018-01-23T00:54:28.283Z,6.82
2018-01-23T00:56:55.764Z,6.80
2018-01-23T00:59:23.219Z,6.82
2018-01-23T01:01:50.699Z,6.78
2018-01-23T01:04:18.158Z,6.75
2018-01-23T01:06:45.636Z,6.80
2018-01-23T01:09:13.097Z,6.78
2018-01-23T01:11:40.584Z,6.76
2018-01-23T01:14:08.042Z,6.71
2018-01-23T01:16:35.519Z,6.67
2018-01-23T01:19:02.981Z,6.61
2018-01-23T01:21:30.468Z,6.53
2018-01-23T01:23:57.924Z,6.47
2018-01-23T01:26:25.406Z,6.45
2018-01-23T01:28:52.870Z,6.40
2018-01-23T01:31:20.365Z,6.33
2018-01-23T01:33:47.823Z,6.31
2018-01-23T01:36:15.299Z,6.30
2018-01-23T01:38:42.759Z,6.29
2018-01-23T01:41:10.249Z,6.23
2018-01-23T01:43:37.717Z,6.28
2018-01-23T01:46:05.176Z,6.21
2018-01-23T01:48:44.463Z,6.15
2018-01-23T01:51:11.926Z,6.12
2018-01-23T01:53:43.028Z,6.08
2018-01-23T01:56:10.483Z,6.18
2018-01-23T01:58:37.959Z,6.16
2018-01-23T02:01:05.410Z,6.19
2018-01-23T02:03:32.887Z,6.20
2018-01-23T02:06:00.356Z,6.23
2018-01-23T02:08:27.879Z,6.22
2018-01-23T02:10:55.335Z,6.23
2018-01-23T02:13:22.830Z,6.19
2018-01-23T02:15:50.286Z,6.17
2018-01-23T02:18:18.563Z,6.12
2018-01-23T02:20:46.023Z,6.02
2018-01-23T02:23:13.493Z,5.96
2018-01-23T02:25:40.953Z,5.93
2018-01-23T02:28:08.436Z,5.83
2018-01-23T02:30:35.979Z,5.79
2018-01-23T02:33:03.457Z,5.74
2018-01-23T02:35:30.922Z,5.73
2018-01-23T02:37:58.398Z,5.71
2018-01-23T02:40:25.865Z,5.74
2018-01-23T02:42:53.339Z,5.75
2018-01-23T02:45:20.798Z,5.74
2018-01-23T02:47:48.270Z,5.71
2018-01-23T02:50:15.739Z,5.75
2018-01-23T02:52:43.215Z,5.78
2018-01-23T02:55:10.672Z,5.85
2018-01-23T02:57:38.149Z,5.88
2018-01-23T03:00:05.611Z,5.85
2018-01-23T03:02:33.096Z,5.91
2018-01-23T03:05:00.847Z,5.96
2018-01-23T03:07:28.671Z,5.99
2018-01-23T03:09:56.141Z,6.04
2018-01-23T03:12:23.631Z,6.05
2018-01-23T03:14:52.313Z,6.12
2018-01-23T03:17:20.681Z,6.07
2018-01-23T03:19:48.186Z,6.04
2018-01-23T03:22:16.080Z,6.09
2018-01-23T03:24:43.586Z,6.18
2018-01-23T03:27:11.046Z,6.25
2018-01-23T03:29:38.663Z,6.26
2018-01-23T03:32:06.683Z,6.23
2018-01-23T03:34:34.158Z,6.32
2018-01-23T03:37:01.643Z,6.36
2018-01-23T03:39:29.530Z,6.30
2018-01-23T03:41:57.038Z,6.30
2018-01-23T03:44:24.575Z,6.33
2018-01-23T03:46:53.054Z,6.34
2018-01-23T03:49:20.886Z,6.36
2018-01-23T03:51:48.374Z,6.35
2018-01-23T03:54:15.878Z,6.32
2018-01-23T03:56:43.363Z,6.36
2018-01-23T03:59:11.602Z,6.31
2018-01-23T04:01:39.322Z,6.36
2018-01-23T04:04:07.030Z,6.35
2018-01-23T04:06:34.790Z,6.29
2018-01-23T04:09:02.303Z,6.35
2018-01-23T04:11:29.760Z,6.35
2018-01-23T04:13:57.287Z,6.35
2018-01-23T04:16:24.739Z,6.35
2018-01-23T04:18:52.254Z,6.38
2018-01-23T04:21:19.706Z,6.39
2018-01-23T04:23:47.559Z,6.35
2018-01-23T04:26:15.058Z,6.34
2018-01-23T04:28:42.535Z,6.42
2018-01-23T04:31:10.016Z,6.46
2018-01-23T04:33:37.554Z,6.44
2018-01-23T04:36:05.439Z,6.45
2018-01-23T04:38:33.175Z,6.46
2018-01-23T04:41:00.697Z,6.50
2018-01-23T04:43:28.165Z,6.50
2018-01-23T04:45:56.391Z,6.53
2018-01-23T04:48:23.842Z,6.51
2018-01-23T04:50:51.325Z,6.45
2018-01-23T04:53:19.080Z,6.49
2018-01-23T04:55:46.551Z,6.53
2018-01-23T04:58:14.266Z,6.53
2018-01-23T05:00:42.338Z,6.59
2018-01-23T05:03:09.839Z,6.68
2018-01-23T05:05:37.381Z,6.60
2018-01-23T05:08:05.646Z,6.69
2018-01-23T05:10:33.366Z,6.64
2018-01-23T05:13:00.853Z,6.62
2018-01-23T05:15:28.651Z,6.66
2018-01-23T05:17:56.504Z,6.84
2018-01-23T05:20:24.378Z,6.72
2018-01-23T05:22:51.848Z,6.69
2018-01-23T05:25:19.356Z,6.62
2018-01-23T05:27:47.210Z,6.44
2018-01-23T05:30:14.763Z,6.44
2018-01-23T05:32:42.657Z,6.46
2018-01-23T05:35:10.151Z,6.49
2018-01-23T05:37:38.874Z,6.58
2018-01-23T05:40:06.413Z,6.62
2018-01-23T05:42:34.754Z,6.61
2018-01-23T05:45:02.226Z,6.57
2018-01-23T05:47:30.185Z,6.54
2018-01-23T05:49:57.700Z,6.51
2018-01-23T05:52:25.168Z,6.48
2018-01-23T05:54:52.708Z,6.50
2018-01-23T05:57:20.510Z,6.58
2018-01-23T05:59:47.984Z,6.55
2018-01-23T06:02:15.892Z,6.57
2018-01-23T06:04:44.275Z,6.55
2018-01-23T06:07:12.131Z,6.56
2018-01-23T06:09:40.594Z,6.57
2018-01-23T06:12:08.083Z,6.54
2018-01-23T06:14:36.309Z,6.61
2018-01-23T06:17:04.064Z,6.62
2018-01-23T06:19:31.550Z,6.58
2018-01-23T06:21:59.871Z,6.51
2018-01-23T06:24:27.355Z,6.55
2018-01-23T06:26:54.842Z,6.56
2018-01-23T06:29:22.680Z,6.59
2018-01-23T06:31:50.219Z,6.61
2018-01-23T06:34:17.714Z,6.56
2018-01-23T06:36:45.214Z,6.49
2018-01-23T06:39:12.971Z,6.50
2018-01-23T06:41:40.834Z,6.63
2018-01-23T06:44:08.310Z,6.66
2018-01-23T06:46:35.791Z,6.65
2018-01-23T06:49:03.507Z,6.66
2018-01-23T06:51:30.991Z,6.76
2018-01-23T06:53:58.759Z,6.67
2018-01-23T06:56:26.588Z,6.64
2018-01-23T06:58:54.434Z,6.68
2018-01-23T07:01:21.942Z,6.62
2018-01-23T07:03:49.747Z,6.66
2018-01-23T07:06:17.262Z,6.65
2018-01-23T07:08:44.738Z,6.71
2018-01-23T07:11:12.258Z,6.78
2018-01-23T07:13:40.203Z,6.76
2018-01-23T07:16:07.916Z,6.83
2018-01-23T07:18:35.408Z,6.84
2018-01-23T07:21:03.368Z,6.89
2018-01-23T07:23:31.286Z,6.90
2018-01-23T07:25:58.999Z,6.82
2018-01-23T07:28:27.812Z,6.88
2018-01-23T07:30:56.346Z,6.80
2018-01-23T07:33:23.806Z,6.67
2018-01-23T07:35:51.763Z,6.74
2018-01-23T07:38:19.247Z,6.66
2018-01-23T07:40:50.738Z,6.85
2018-01-23T07:43:18.469Z,6.79
2018-01-23T07:45:45.965Z,6.75
2018-01-23T07:48:13.728Z,6.84
2018-01-23T07:50:41.222Z,6.87
2018-01-23T07:53:08.773Z,6.86
2018-01-23T07:55:36.268Z,6.92
2018-01-23T07:58:04.027Z,6.94
2018-01-23T08:00:31.495Z,6.97
2018-01-23T08:02:58.974Z,6.87
2018-01-23T08:05:26.474Z,6.89
2018-01-23T08:07:54.282Z,6.86
2018-01-23T08:10:21.954Z,6.95
2018-01-23T08:12:50.830Z,6.97
2018-01-23T08:15:18.286Z,7.00
2018-01-23T08:17:45.802Z,6.90
2018-01-23T08:20:13.490Z,6.97
2018-01-23T08:22:41.358Z,7.03
2018-01-23T08:25:09.244Z,7.07
2018-01-23T08:27:36.977Z,6.92
2018-01-23T08:30:05.730Z,7.02
2018-01-23T08:32:33.217Z,7.00
2018-01-23T08:35:00.682Z,7.02
2018-01-23T08:37:28.199Z,7.06
2018-01-23T08:39:55.692Z,7.04
2018-01-23T08:42:23.190Z,7.04
2018-01-23T08:44:51.291Z,7.03
2018-01-23T08:47:19.075Z,7.05
2018-01-23T08:49:47.330Z,7.11
2018-01-23T08:52:15.154Z,7.12
2018-01-23T08:54:42.675Z,7.12
2018-01-23T08:57:10.180Z,7.13
2018-01-23T08:59:37.714Z,7.15
2018-01-23T09:02:05.562Z,7.10
2018-01-23T09:04:33.059Z,7.13
2018-01-23T09:07:00.905Z,7.15
2018-01-23T09:09:28.413Z,7.18
2018-01-23T09:11:55.902Z,7.25
2018-01-23T09:14:23.358Z,7.28
2018-01-23T09:16:51.054Z,7.30
2018-01-23T09:19:18.566Z,7.31
2018-01-23T09:21:46.083Z,7.35
2018-01-23T09:24:13.818Z,7.40
2018-01-23T09:26:41.272Z,7.42
2018-01-23T09:29:08.744Z,7.46
2018-01-23T09:31:36.208Z,7.51
2018-01-23T09:34:03.945Z,7.51
2018-01-23T09:36:32.271Z,7.51
2018-01-23T09:39:01.106Z,7.54
2018-01-23T09:41:28.581Z,7.63
2018-01-23T09:43:56.078Z,7.75
2018-01-23T09:46:23.899Z,7.87
2018-01-23T09:48:51.435Z,8.05
2018-01-23T09:51:18.918Z,7.99
2018-01-23T09:53:46.400Z,8.09
2018-01-23T09:56:14.190Z,8.25
2018-01-23T09:58:41.690Z,8.29
2018-01-23T10:01:09.139Z,8.26
2018-01-23T10:03:36.846Z,8.29
2018-01-23T10:06:04.821Z,8.34
2018-01-23T10:08:33.085Z,8.33
2018-01-23T10:11:01.520Z,8.45
2018-01-23T10:13:29.346Z,8.50
2018-01-23T10:15:56.799Z,8.39
2018-01-23T10:20:57.362Z,8.38
2018-01-23T10:23:24.847Z,8.23
2018-01-23T10:25:52.312Z,8.30
2018-01-23T10:28:19.782Z,8.28
2018-01-23T10:30:47.247Z,8.37
2018-01-23T10:33:14.725Z,8.30
2018-01-23T10:35:42.178Z,8.30
2018-01-23T10:38:09.663Z,8.30
2018-01-23T10:40:37.120Z,8.41
2018-01-23T10:43:04.595Z,8.45
2018-01-23T10:45:32.056Z,8.37
2018-01-23T10:47:59.509Z,8.53
2018-01-23T10:50:26.990Z,8.64
2018-01-23T10:52:54.451Z,8.60
2018-01-23T10:55:21.933Z,8.65
2018-01-23T10:57:49.395Z,8.59
2018-01-23T11:00:16.866Z,8.51
2018-01-23T11:02:44.325Z,8.43
2018-01-23T11:05:11.805Z,8.37
2018-01-23T11:07:39.267Z,8.42
2018-01-23T11:10:06.752Z,8.44
2018-01-23T11:12:34.214Z,8.49
2018-01-23T11:15:01.692Z,8.46
2018-01-23T11:17:29.163Z,8.51
2018-01-23T11:19:56.640Z,8.52
2018-01-23T11:22:24.098Z,8.54
2018-01-23T11:24:51.570Z,8.56
2018-01-23T11:27:19.043Z,8.64
2018-01-23T11:29:46.522Z,8.71
2018-01-23T11:32:14.017Z,8.86
2018-01-23T11:34:41.479Z,8.91
2018-01-23T11:37:08.939Z,9.06
2018-01-23T11:39:36.416Z,9.06
2018-01-23T11:42:03.874Z,9.27
2018-01-23T11:44:31.355Z,9.43
2018-01-23T11:46:58.811Z,9.41
2018-01-23T11:49:26.290Z,9.48
2018-01-23T11:51:53.751Z,9.55
2018-01-23T11:54:21.235Z,9.55
2018-01-23T11:56:48.706Z,9.48
2018-01-23T11:59:16.178Z,9.50
2018-01-23T12:01:43.638Z,9.65
2018-01-23T12:04:11.115Z,9.46
2018-01-23T12:06:38.646Z,9.59
2018-01-23T12:09:06.119Z,9.77
2018-01-23T12:11:33.573Z,9.72
2018-01-23T12:14:01.026Z,9.82
2018-01-23T12:16:28.502Z,9.97
2018-01-23T12:18:55.962Z,10.05
2018-01-23T12:21:23.439Z,9.90
2018-01-23T12:23:50.903Z,10.11
2018-01-23T12:26:18.379Z,9.80
2018-01-23T12:28:45.834Z,9.72
2018-01-23T12:31:13.307Z,9.67
2018-01-23T12:33:40.766Z,9.77
2018-01-23T12:36:08.243Z,9.81
2018-01-23T12:38:35.699Z,9.89
2018-01-23T12:41:03.524Z,9.98
2018-01-23T12:43:31.912Z,10.03
2018-01-23T12:45:59.388Z,10.06
2018-01-23T12:48:27.532Z,9.98
2018-01-23T12:50:55.274Z,9.97
2018-01-23T12:53:22.858Z,9.88
2018-01-23T12:55:51.682Z,9.76
2018-01-23T12:58:19.180Z,9.74
2018-01-23T13:00:48.218Z,9.72
2018-01-23T13:03:15.813Z,9.80
2018-01-23T13:05:43.292Z,9.80
2018-01-23T13:08:10.746Z,9.90
2018-01-23T13:10:38.223Z,9.92
2018-01-23T13:13:05.684Z,10.07
2018-01-23T13:15:33.567Z,10.04
2018-01-23T13:18:01.037Z,10.10
2018-01-23T13:20:28.513Z,9.86
2018-01-23T13:22:55.975Z,10.12
2018-01-23T13:25:23.446Z,10.08
2018-01-23T13:27:50.903Z,10.06
2018-01-23T13:30:18.378Z,10.10
2018-01-23T13:32:45.839Z,10.20
2018-01-23T13:35:13.315Z,10.46
2018-01-23T13:37:40.774Z,10.47
2018-01-23T13:40:08.227Z,10.57
2018-01-23T13:42:35.712Z,10.52
2018-01-23T13:45:03.180Z,10.43
2018-01-23T13:47:30.658Z,10.40
2018-01-23T13:49:58.110Z,10.62
2018-01-23T13:52:25.624Z,10.54
2018-01-23T13:54:53.079Z,10.80
2018-01-23T13:57:20.558Z,10.47
2018-01-23T13:59:48.018Z,10.81
2018-01-23T14:02:15.491Z,10.77
2018-01-23T14:04:42.938Z,10.55
2018-01-23T14:07:10.411Z,10.60
2018-01-23T14:09:37.871Z,10.44
2018-01-23T14:12:05.342Z,10.47
2018-01-23T14:14:32.800Z,10.17
2018-01-23T14:19:27.024Z,9.96
2018-01-23T14:21:54.515Z,10.01
2018-01-23T14:24:21.974Z,10.17
2018-01-23T14:26:49.450Z,10.38
2018-01-23T14:29:16.903Z,10.61
2018-01-23T14:31:44.379Z,10.38
2018-01-23T14:34:11.843Z,10.28
2018-01-23T14:36:39.330Z,10.25
2018-01-23T14:39:06.791Z,10.22
2018-01-23T14:41:34.271Z,10.16
2018-01-23T14:44:01.981Z,10.09
2018-01-23T14:46:29.454Z,10.01
2018-01-23T14:48:56.959Z,10.11
2018-01-23T14:51:24.496Z,10.06
2018-01-23T14:53:51.958Z,10.01
2018-01-23T14:56:19.804Z,10.02
2018-01-23T14:58:47.343Z,10.06
2018-01-23T15:01:14.865Z,10.11
2018-01-23T15:03:42.629Z,9.98
2018-01-23T15:06:10.088Z,10.01
2018-01-23T15:08:37.783Z,9.86
2018-01-23T15:11:05.266Z,9.81
2018-01-23T15:13:33.175Z,9.80
2018-01-23T15:16:02.098Z,9.67
2018-01-23T15:18:29.651Z,9.61
2018-01-23T15:20:57.202Z,9.57
2018-01-23T15:23:24.754Z,9.56
2018-01-23T15:25:52.475Z,9.51
2018-01-23T15:28:19.978Z,9.53
2018-01-23T15:30:48.334Z,9.52
2018-01-23T15:33:15.814Z,9.56
2018-01-23T15:35:43.355Z,9.51
2018-01-23T15:38:10.846Z,9.60
2018-01-23T15:40:38.367Z,9.66
2018-01-23T15:43:05.835Z,9.60
2018-01-23T15:45:33.290Z,9.59
2018-01-23T15:48:00.823Z,9.58
2018-01-23T15:50:29.654Z,9.54
2018-01-23T15:52:57.600Z,9.46
2018-01-23T15:55:25.101Z,9.58
2018-01-23T15:57:52.884Z,9.55
2018-01-23T16:00:21.358Z,9.45
2018-01-23T16:02:48.876Z,9.54
2018-01-23T16:05:16.705Z,9.54
2018-01-23T16:07:44.591Z,9.50
2018-01-23T16:10:12.044Z,9.42
2018-01-23T16:12:39.734Z,9.49
2018-01-23T16:15:07.214Z,9.55
2018-01-23T16:17:34.990Z,9.50
2018-01-23T16:20:02.772Z,9.57
2018-01-23T16:22:30.312Z,9.52
2018-01-23T16:24:57.755Z,9.57
2018-01-23T16:27:25.487Z,9.54
2018-01-23T16:29:53.286Z,9.56
2018-01-23T16:32:20.759Z,9.50
2018-01-23T16:34:49.055Z,9.46
2018-01-23T16:37:17.283Z,9.44
2018-01-23T16:39:45.069Z,9.34
2018-01-23T16:42:12.563Z,9.40
2018-01-23T16:44:40.098Z,9.42
2018-01-23T16:47:07.626Z,9.46
2018-01-23T16:49:35.158Z,9.45
2018-01-23T16:52:02.643Z,9.42
2018-01-23T16:54:31.168Z,9.39
2018-01-23T16:56:58.651Z,9.42
2018-01-23T16:59:26.173Z,9.40
2018-01-23T17:01:54.054Z,9.37
2018-01-23T17:04:21.945Z,9.26
2018-01-23T17:06:49.709Z,9.31
2018-01-23T17:09:17.282Z,9.24
2018-01-23T17:11:44.735Z,9.22
2018-01-23T17:14:12.348Z,9.28
2018-01-23T17:16:40.781Z,9.35
2018-01-23T17:19:09.638Z,9.39
2018-01-23T17:21:38.515Z,9.32
2018-01-23T17:24:06.255Z,9.43
2018-01-23T17:26:34.115Z,9.33
2018-01-23T17:29:02.096Z,9.34
2018-01-23T17:31:30.210Z,9.34
2018-01-23T17:33:57.726Z,9.42
2018-01-23T17:36:25.672Z,9.44
2018-01-23T17:38:53.533Z,9.41
2018-01-23T17:41:21.132Z,9.39
2018-01-23T17:43:49.766Z,9.39
2018-01-23T17:46:18.274Z,9.22
2018-01-23T17:48:46.210Z,9.29
2018-01-23T17:51:14.063Z,9.36
2018-01-23T17:53:41.883Z,9.35
2018-01-23T17:56:10.214Z,9.32
2018-01-23T17:58:38.032Z,9.35
2018-01-23T18:01:05.839Z,9.43
2018-01-23T18:03:33.336Z,9.43
2018-01-23T18:06:01.175Z,9.47
2018-01-23T18:08:30.009Z,9.49
2018-01-23T18:10:57.866Z,9.47
2018-01-23T18:13:25.367Z,9.44
2018-01-23T18:15:52.920Z,9.33
2018-01-23T18:18:21.037Z,9.28
2018-01-23T18:20:48.939Z,9.27
2018-01-23T18:23:16.472Z,9.28
2018-01-23T18:25:44.079Z,9.20
2018-01-23T18:28:13.680Z,9.28
2018-01-23T18:30:43.271Z,9.12
2018-01-23T18:33:11.282Z,9.17
2018-01-23T18:35:39.655Z,9.18
2018-01-23T18:38:07.187Z,9.19
2018-01-23T18:40:36.111Z,9.08
2018-01-23T18:43:05.595Z,9.15
2018-01-23T18:45:34.187Z,9.20
2018-01-23T18:50:33.844Z,9.09
2018-01-23T18:53:01.400Z,9.26
2018-01-23T18:55:28.977Z,9.22
2018-01-23T18:57:56.556Z,9.46
2018-01-23T19:00:24.170Z,9.47
2018-01-23T19:02:51.785Z,9.46
2018-01-23T19:05:19.326Z,9.36
2018-01-23T19:07:46.811Z,9.40
2018-01-23T19:10:14.287Z,9.35
2018-01-23T19:12:41.742Z,9.50
2018-01-23T19:15:09.711Z,9.58
2018-01-23T19:17:37.167Z,9.47
2018-01-23T19:20:04.650Z,9.33
2018-01-23T19:22:32.107Z,9.40
2018-01-23T19:24:59.577Z,9.37
2018-01-23T19:27:27.026Z,9.48
2018-01-23T19:29:54.502Z,9.34
2018-01-23T19:32:21.964Z,9.45
2018-01-23T19:34:49.720Z,9.34
2018-01-23T19:37:17.581Z,9.37
2018-01-23T19:39:45.099Z,9.35
2018-01-23T19:42:12.561Z,9.45
2018-01-23T19:44:40.002Z,9.43
2018-01-23T19:47:07.475Z,9.48
2018-01-23T19:49:34.938Z,9.54
2018-01-23T19:52:02.407Z,9.44
2018-01-23T19:54:29.871Z,9.51
2018-01-23T19:56:57.338Z,9.43
2018-01-23T19:59:24.822Z,9.55
2018-01-23T20:01:52.298Z,9.49
2018-01-23T20:04:19.863Z,9.44
2018-01-23T20:06:47.375Z,9.44
2018-01-23T20:09:14.826Z,9.47
2018-01-23T20:11:42.863Z,9.59
2018-01-23T20:14:10.318Z,9.63
2018-01-23T20:16:37.789Z,9.66
2018-01-23T20:19:05.254Z,9.72
2018-01-23T20:21:32.718Z,9.75
2018-01-23T20:24:00.166Z,9.83
2018-01-23T20:26:27.692Z,9.79
2018-01-23T20:28:55.241Z,9.81
2018-01-23T20:31:22.719Z,9.79
2018-01-23T20:33:50.179Z,9.80
2018-01-23T20:36:17.679Z,9.80
2018-01-23T20:38:45.143Z,9.78
2018-01-23T20:41:12.627Z,9.66
2018-01-23T20:43:40.079Z,9.58
2018-01-23T20:46:07.559Z,9.59
2018-01-23T20:48:35.020Z,9.60
2018-01-23T20:51:02.506Z,9.79
2018-01-23T20:53:29.958Z,9.67
2018-01-23T20:55:57.522Z,9.64
2018-01-23T20:58:24.985Z,9.61
2018-01-23T21:00:52.457Z,9.65
2018-01-23T21:03:19.915Z,9.63
2018-01-23T21:05:47.400Z,9.73
2018-01-23T21:08:14.857Z,9.66
2018-01-23T21:10:42.306Z,9.59
2018-01-23T21:13:09.783Z,9.56
2018-01-23T21:15:37.244Z,9.60
2018-01-23T21:18:04.714Z,9.65
2018-01-23T21:20:32.168Z,9.67
2018-01-23T21:22:59.647Z,9.57
2018-01-23T21:25:27.114Z,9.58
2018-01-23T21:27:54.586Z,9.56
2018-01-23T21:30:22.044Z,9.44
2018-01-23T21:32:49.519Z,9.59
2018-01-23T21:35:16.966Z,9.61
2018-01-23T21:37:44.440Z,9.60
2018-01-23T21:40:11.892Z,9.54
2018-01-23T21:42:39.362Z,9.48
2018-01-23T21:45:06.823Z,9.65
2018-01-23T21:47:44.835Z,9.67
2018-01-23T21:50:12.295Z,9.63
2018-01-23T21:52:39.775Z,9.79
2018-01-23T21:55:07.231Z,9.87
2018-01-23T21:57:34.706Z,9.88
2018-01-23T22:00:02.160Z,9.97
2018-01-23T22:02:29.638Z,9.97
2018-01-23T22:04:57.112Z,10.22
2018-01-23T22:07:24.594Z,10.28
2018-01-23T22:09:52.071Z,10.31
2018-01-23T22:12:19.550Z,10.28
2018-01-23T22:14:47.002Z,10.32
2018-01-23T22:17:14.478Z,10.34
2018-01-23T22:19:41.939Z,10.43
2018-01-23T22:22:09.427Z,10.35
2018-01-23T22:24:36.885Z,10.32
2018-01-23T22:27:04.355Z,10.28
2018-01-23T22:29:32.299Z,10.28
2018-01-23T22:31:59.778Z,10.25
2018-01-23T22:34:27.235Z,10.28
2018-01-23T22:36:54.708Z,10.37
2018-01-23T22:39:22.168Z,10.36
2018-01-23T22:41:49.631Z,10.33
2018-01-23T22:44:17.114Z,10.32
2018-01-23T22:46:44.570Z,10.35
2018-01-23T22:49:12.051Z,10.23
2018-01-23T22:51:39.507Z,10.19
2018-01-23T22:54:06.998Z,10.20
2018-01-23T22:56:34.450Z,10.24
2018-01-23T22:59:01.931Z,10.21
2018-01-23T23:01:29.387Z,10.42
2018-01-23T23:03:56.866Z,10.47
2018-01-23T23:06:24.327Z,10.43
2018-01-23T23:08:51.802Z,10.49
2018-01-23T23:11:19.265Z,10.49
2018-01-23T23:13:46.740Z,10.56
2018-01-23T23:16:14.199Z,10.56
2018-01-23T23:18:41.674Z,10.52
2018-01-23T23:21:09.130Z,10.56
2018-01-23T23:23:36.630Z,10.73
2018-01-23T23:26:04.107Z,10.69
2018-01-23T23:28:31.648Z,10.73
2018-01-23T23:30:59.107Z,10.75
2018-01-23T23:33:26.585Z,10.72
2018-01-23T23:35:54.042Z,10.72
2018-01-23T23:38:21.532Z,10.69
2018-01-23T23:40:48.990Z,10.77
2018-01-23T23:43:16.562Z,10.76
2018-01-23T23:45:44.062Z,10.77
2018-01-23T23:48:11.583Z,10.76
2018-01-23T23:50:39.048Z,10.81
2018-01-23T23:53:06.526Z,10.78
2018-01-23T23:55:34.822Z,10.79
2018-01-23T23:58:02.370Z,10.85
